Latest Weather Observations for Fawkner Beacon

IDV60901

Issued at 3:11 am EST Sunday 25 June 2017 (issued every 10 minutes, with the page automatically refreshed every 10 minutes)

About weather observations | Map of Melbourne area stations | Latest observations for Melbourne area | Other Formats
Station Details ID: 086376 Name: FAWKNER BEACON Lat: -37.91 Lon: 144.93 Height: 17.0 m
Data from the previous 72 hours. | See also: Recent months for locations in Victoria
Date/Time
EST
Temp
°C
App
Temp
°C
Dew
Point
°C
Rel
Hum
%
Delta-T
°C
Wind Press
QNH
hPa
Press
MSL
hPa
Rain since
9am
mm
Dir  Spd
km/h
Gust
km/h
Spd
kts
Gust
kts
25/03:00am - - - - - NW 35 41 19 22 - - -
25/02:30am - - - - - NW 30 39 16 21 - - -
25/02:00am - - - - - NNW 32 39 17 21 - - -
25/01:30am - - - - - NNW 28 33 15 18 - - -
25/01:00am - - - - - NW 30 39 16 21 - - -
25/12:30am - - - - - NW 30 33 16 18 - - -
25/12:00am - - - - - NNW 24 28 13 15 - - -
 
Date/Time
EST
Temp
°C
App
Temp
°C
Dew
Point
°C
Rel
Hum
%
Delta-T
°C
Wind Press
QNH
hPa
Press
MSL
hPa
Rain since
9am
mm
Dir  Spd
km/h
Gust
km/h
Spd
kts
Gust
kts
24/11:30pm - - - - - NNW 24 30 13 16 - - -
24/11:00pm - - - - - NNW 22 28 12 15 - - -
24/10:30pm - - - - - NNW 20 24 11 13 - - -
24/10:00pm - - - - - NW 20 24 11 13 - - -
24/09:30pm - - - - - NW 20 26 11 14 - - -
24/09:00pm - - - - - WNW 19 22 10 12 - - -
24/08:30pm - - - - - W 24 30 13 16 - - -
24/08:00pm - - - - - NW 19 24 10 13 - - -
24/07:30pm - - - - - NW 24 30 13 16 - - -
24/07:00pm - - - - - W 28 35 15 19 - - -
24/06:30pm - - - - - WSW 28 32 15 17 - - -
24/06:00pm - - - - - W 22 26 12 14 - - -
24/05:30pm - - - - - W 20 26 11 14 - - -
24/05:00pm - - - - - W 26 28 14 15 - - -
24/04:30pm - - - - - W 22 30 12 16 - - -
24/04:00pm - - - - - SW 11 13 6 7 - - -
24/03:30pm - - - - - WSW 11 15 6 8 - - -
24/03:00pm - - - - - SW 13 17 7 9 - - -
24/02:30pm - - - - - WSW 17 22 9 12 - - -
24/02:00pm - - - - - WSW 17 20 9 11 - - -
24/01:30pm - - - - - WSW 19 22 10 12 - - -
24/01:00pm - - - - - WSW 19 22 10 12 - - -
24/12:30pm - - - - - WSW 20 26 11 14 - - -
24/12:00pm - - - - - WSW 22 26 12 14 - - -
24/11:30am - - - - - WSW 24 30 13 16 - - -
24/11:00am - - - - - WSW 22 28 12 15 - - -
24/10:30am - - - - - WSW 22 26 12 14 - - -
24/10:00am - - - - - W 24 28 13 15 - - -
24/09:30am - - - - - W 24 30 13 16 - - -
24/09:00am - - - - - W 24 30 13 16 - - -
24/08:30am - - - - - W 30 35 16 19 - - -
24/08:00am - - - - - W 28 32 15 17 - - -
24/07:30am - - - - - W 26 32 14 17 - - -
24/07:00am - - - - - W 28 32 15 17 - - -
24/06:30am - - - - - W 26 32 14 17 - - -
24/06:00am - - - - - W 26 33 14 18 - - -
24/05:30am - - - - - WSW 28 32 15 17 - - -
24/05:00am - - - - - W 26 30 14 16 - - -
24/04:30am - - - - - W 24 28 13 15 - - -
24/04:00am - - - - - WSW 28 33 15 18 - - -
24/03:30am - - - - - WSW 30 33 16 18 - - -
24/03:00am - - - - - SW 30 33 16 18 - - -
24/02:30am - - - - - SW 30 35 16 19 - - -
24/02:00am - - - - - SW 33 41 18 22 - - -
24/01:30am - - - - - SSW 33 41 18 22 - - -
24/01:05am - - - - - W 30 41 16 22 - - -
24/01:00am - - - - - W 28 35 15 19 - - -
24/12:30am - - - - - W 28 33 15 18 - - -
24/12:00am - - - - - WNW 30 35 16 19 - - -
 
Date/Time
EST
Temp
°C
App
Temp
°C
Dew
Point
°C
Rel
Hum
%
Delta-T
°C
Wind Press
QNH
hPa
Press
MSL
hPa
Rain since
9am
mm
Dir  Spd
km/h
Gust
km/h
Spd
kts
Gust
kts
23/11:30pm - - - - - WNW 32 35 17 19 - - -
23/11:00pm - - - - - WNW 32 41 17 22 - - -
23/10:30pm - - - - - WNW 32 43 17 23 - - -
23/10:00pm - - - - - W 43 52 23 28 - - -
23/09:44pm - - - - - NW 37 48 20 26 - - -
23/09:30pm - - - - - NW 30 35 16 19 - - -
23/09:00pm - - - - - NNW 32 39 17 21 - - -
23/08:30pm - - - - - NNW 32 39 17 21 - - -
23/08:00pm - - - - - NNW 32 35 17 19 - - -
23/07:30pm - - - - - NNW 30 41 16 22 - - -
23/07:00pm - - - - - NNW 37 44 20 24 - - -
23/06:30pm - - - - - NNW 28 33 15 18 - - -
23/06:00pm - - - - - NW 30 39 16 21 - - -
23/05:30pm - - - - - NW 26 33 14 18 - - -
23/05:00pm - - - - - NNW 24 32 13 17 - - -
23/04:30pm - - - - - N 35 41 19 22 - - -
23/04:00pm - - - - - N 39 44 21 24 - - -
23/03:30pm - - - - - N 41 46 22 25 - - -
23/03:00pm - - - - - N 43 50 23 27 - - -
23/02:30pm - - - - - N 43 52 23 28 - - -
23/02:00pm - - - - - N 48 54 26 29 - - -
23/01:30pm - - - - - N 44 54 24 29 - - -
23/01:00pm - - - - - N 46 52 25 28 - - -
23/12:30pm - - - - - N 46 54 25 29 - - -
23/12:00pm - - - - - N 44 52 24 28 - - -
23/11:30am - - - - - N 39 50 21 27 - - -
23/11:00am - - - - - N 39 44 21 24 - - -
23/10:30am - - - - - N 39 44 21 24 - - -
23/10:00am - - - - - N 41 46 22 25 - - -
23/09:30am - - - - - N 41 46 22 25 - - -
23/09:00am - - - - - N 39 44 21 24 - - -
23/08:30am - - - - - N 33 41 18 22 - - -
23/08:00am - - - - - N 32 41 17 22 - - -
23/07:30am - - - - - N 33 39 18 21 - - -
23/07:00am - - - - - N 32 35 17 19 - - -
23/06:30am - - - - - N 30 33 16 18 - - -
23/06:00am - - - - - N 32 39 17 21 - - -
23/05:30am - - - - - N 35 39 19 21 - - -
23/05:00am - - - - - N 32 35 17 19 - - -
23/04:30am - - - - - N 30 35 16 19 - - -
23/04:00am - - - - - N 30 33 16 18 - - -
23/03:30am - - - - - N 32 35 17 19 - - -
23/03:00am - - - - - N 28 32 15 17 - - -
23/02:30am - - - - - N 26 30 14 16 - - -
23/02:00am - - - - - N 30 33 16 18 - - -
23/01:30am - - - - - N 24 30 13 16 - - -
23/01:00am - - - - - N 24 30 13 16 - - -
23/12:30am - - - - - N 26 28 14 15 - - -
23/12:00am - - - - - N 24 28 13 15 - - -
 
Date/Time
EST
Temp
°C
App
Temp
°C
Dew
Point
°C
Rel
Hum
%
Delta-T
°C
Wind Press
QNH
hPa
Press
MSL
hPa
Rain since
9am
mm
Dir  Spd
km/h
Gust
km/h
Spd
kts
Gust
kts
22/11:30pm - - - - - N 24 26 13 14 - - -
22/11:00pm - - - - - N 24 28 13 15 - - -
22/10:30pm - - - - - N 24 28 13 15 - - -
22/10:00pm - - - - - N 24 28 13 15 - - -
22/09:30pm - - - - - N 24 28 13 15 - - -
22/09:00pm - - - - - N 22 26 12 14 - - -
22/08:30pm - - - - - N 22 28 12 15 - - -
22/08:00pm - - - - - N 24 26 13 14 - - -
22/07:30pm - - - - - N 20 24 11 13 - - -
22/07:00pm - - - - - N 22 26 12 14 - - -
22/06:30pm - - - - - N 22 24 12 13 - - -
22/06:00pm - - - - - N 22 24 12 13 - - -
22/05:30pm - - - - - N 20 24 11 13 - - -
22/05:00pm - - - - - N 24 26 13 14 - - -
22/04:30pm - - - - - N 20 24 11 13 - - -
22/04:00pm - - - - - N 22 26 12 14 - - -
22/03:30pm - - - - - N 22 24 12 13 - - -
22/03:00pm - - - - - N 20 24 11 13 - - -
22/02:30pm - - - - - N 20 22 11 12 - - -
22/02:00pm - - - - - N 20 24 11 13 - - -
22/01:30pm - - - - - N 19 22 10 12 - - -
22/01:00pm - - - - - NNW 11 17 6 9 - - -
22/12:30pm - - - - - N 13 15 7 8 - - -
22/12:00pm - - - - - NNE 9 11 5 6 - - -
22/11:30am - - - - - N 11 15 6 8 - - -
22/11:00am - - - - - N 17 22 9 12 - - -
22/10:30am - - - - - NNE 19 22 10 12 - - -
22/10:00am - - - - - N 24 28 13 15 - - -
22/09:30am - - - - - N 22 26 12 14 - - -
22/09:00am - - - - - N 19 24 10 13 - - -
22/08:30am - - - - - N 22 26 12 14 - - -
22/08:00am - - - - - N 22 24 12 13 - - -
22/07:30am - - - - - N 20 24 11 13 - - -
22/07:00am - - - - - N 19 22 10 12 - - -
22/06:30am - - - - - N 19 22 10 12 - - -
22/06:00am - - - - - NNW 13 15 7 8 - - -
22/05:30am - - - - - NNW 13 15 7 8 - - -
22/05:00am - - - - - NNW 13 15 7 8 - - -
22/04:30am - - - - - NNW 13 15 7 8 - - -
22/04:00am - - - - - NW 4 7 2 4 - - -
22/03:30am - - - - - W 6 9 3 5 - - -

Latest Capital City Observations: Canberra | Sydney | Melbourne | Brisbane | Adelaide | Perth | Hobart | Darwin

Other Formats:

Comma delimited format used in spreadsheet applications
http://www.bom.gov.au/fwo/IDV60901/IDV60901.95872.axf

JavaScript Object Notation format (JSON) in row-major order
http://www.bom.gov.au/fwo/IDV60901/IDV60901.95872.json